createdAt,value
2018-03-29T00:00:58.410Z,3.42
2018-03-29T00:01:58.388Z,3.45
2018-03-29T00:02:58.363Z,3.42
2018-03-29T00:03:58.345Z,3.43
2018-03-29T00:04:58.322Z,3.42
2018-03-29T00:05:58.300Z,3.45
2018-03-29T00:06:58.283Z,3.39
2018-03-29T00:07:58.253Z,3.47
2018-03-29T00:08:58.233Z,3.47
2018-03-29T00:09:58.211Z,3.42
2018-03-29T00:10:58.189Z,3.33
2018-03-29T00:11:58.169Z,3.45
2018-03-29T00:12:58.147Z,3.47
2018-03-29T00:13:58.124Z,3.42
2018-03-29T00:14:58.104Z,3.43
2018-03-29T00:15:58.083Z,3.40
2018-03-29T00:16:58.064Z,3.43
2018-03-29T00:17:58.041Z,3.47
2018-03-29T00:18:58.021Z,3.52
2018-03-29T00:19:58.006Z,3.50
2018-03-29T00:20:57.973Z,3.42
2018-03-29T00:21:57.949Z,3.48
2018-03-29T00:22:57.928Z,3.47
2018-03-29T00:23:57.908Z,3.45
2018-03-29T00:24:57.886Z,3.45
2018-03-29T00:25:57.860Z,3.48
2018-03-29T00:26:57.844Z,3.45
2018-03-29T00:27:57.822Z,3.47
2018-03-29T00:28:57.831Z,3.52
2018-03-29T00:29:57.785Z,3.57
2018-03-29T00:30:57.758Z,3.55
2018-03-29T00:31:57.734Z,3.57
2018-03-29T00:32:57.716Z,3.61
2018-03-29T00:33:57.693Z,3.54
2018-03-29T00:34:57.667Z,3.61
2018-03-29T00:35:57.647Z,3.60
2018-03-29T00:36:57.628Z,3.65
2018-03-29T00:37:57.605Z,3.61
2018-03-29T00:38:57.584Z,3.58
2018-03-29T00:39:57.567Z,3.60
2018-03-29T00:40:57.538Z,3.54
2018-03-29T00:41:57.529Z,3.55
2018-03-29T00:42:57.500Z,3.54
2018-03-29T00:43:57.473Z,3.60
2018-03-29T00:44:57.453Z,3.58
2018-03-29T00:45:57.434Z,3.60
2018-03-29T00:46:57.458Z,3.65
2018-03-29T00:47:57.493Z,3.60
2018-03-29T00:48:57.371Z,3.60
2018-03-29T00:49:57.341Z,3.50
2018-03-29T00:50:57.339Z,3.55
2018-03-29T00:51:57.300Z,3.60
2018-03-29T00:52:57.284Z,3.54
2018-03-29T00:53:57.256Z,3.58
2018-03-29T00:54:57.241Z,3.62
2018-03-29T00:55:57.213Z,3.65
2018-03-29T00:56:57.341Z,3.52
2018-03-29T00:57:57.174Z,3.61
2018-03-29T00:58:57.154Z,3.66
2018-03-29T00:59:57.182Z,3.68
2018-03-29T01:00:57.107Z,3.62
2018-03-29T01:01:57.084Z,3.69
2018-03-29T01:02:57.067Z,3.65
2018-03-29T01:03:57.048Z,3.66
2018-03-29T01:04:57.028Z,3.61
2018-03-29T01:05:56.999Z,3.55
2018-03-29T01:06:56.987Z,3.65
2018-03-29T01:07:56.956Z,3.51
2018-03-29T01:08:56.936Z,3.52
2018-03-29T01:09:56.917Z,3.55
2018-03-29T01:10:56.894Z,3.54
2018-03-29T01:11:56.881Z,3.58
2018-03-29T01:12:57.021Z,3.54
2018-03-29T01:13:56.825Z,3.55
2018-03-29T01:14:56.804Z,3.57
2018-03-29T01:15:56.787Z,3.58
2018-03-29T01:16:56.765Z,3.62
2018-03-29T01:17:56.742Z,3.58
2018-03-29T01:18:56.722Z,3.58
2018-03-29T01:19:56.699Z,3.54
2018-03-29T01:20:56.674Z,3.62
2018-03-29T01:21:56.655Z,3.61
2018-03-29T01:22:56.636Z,3.55
2018-03-29T01:23:56.610Z,3.54
2018-03-29T01:24:56.591Z,3.65
2018-03-29T01:25:56.572Z,3.69
2018-03-29T01:26:56.542Z,3.66
2018-03-29T01:27:56.521Z,3.62
2018-03-29T01:28:56.500Z,3.61
2018-03-29T01:29:56.484Z,3.62
2018-03-29T01:30:56.461Z,3.62
2018-03-29T01:31:56.436Z,3.73
2018-03-29T01:32:56.414Z,3.75
2018-03-29T01:33:56.393Z,3.61
2018-03-29T01:34:56.376Z,3.69
2018-03-29T01:35:56.364Z,3.73
2018-03-29T01:36:56.336Z,3.68
2018-03-29T01:37:56.309Z,3.73
2018-03-29T01:38:56.287Z,3.72
2018-03-29T01:39:56.263Z,3.72
2018-03-29T01:40:56.244Z,3.68
2018-03-29T01:41:56.222Z,3.70
2018-03-29T01:42:56.199Z,3.78
2018-03-29T01:43:56.180Z,3.75
2018-03-29T01:44:56.157Z,3.76
2018-03-29T01:45:56.133Z,3.79
2018-03-29T01:46:56.114Z,3.78
2018-03-29T01:47:56.092Z,3.78
2018-03-29T01:48:56.069Z,3.76
2018-03-29T01:49:56.046Z,3.76
2018-03-29T01:50:56.027Z,3.78
2018-03-29T01:51:56.004Z,3.84
2018-03-29T01:52:55.985Z,3.79
2018-03-29T01:53:55.961Z,3.83
2018-03-29T01:54:55.941Z,3.76
2018-03-29T01:55:55.918Z,3.84
2018-03-29T01:56:55.907Z,3.79
2018-03-29T01:57:55.877Z,3.86
2018-03-29T01:58:55.854Z,3.80
2018-03-29T01:59:55.833Z,3.80
2018-03-29T02:00:55.835Z,3.93
2018-03-29T02:01:55.794Z,3.79
2018-03-29T02:02:55.772Z,3.83
2018-03-29T02:03:55.748Z,3.86
2018-03-29T02:04:55.736Z,3.80
2018-03-29T02:05:55.704Z,3.87
2018-03-29T02:06:55.682Z,3.86
2018-03-29T02:07:55.660Z,3.80
2018-03-29T02:08:55.648Z,3.84
2018-03-29T02:09:55.615Z,3.83
2018-03-29T02:10:55.597Z,3.80
2018-03-29T02:11:55.578Z,3.88
2018-03-29T02:12:55.553Z,3.87
2018-03-29T02:13:55.640Z,3.86
2018-03-29T02:14:55.509Z,3.84
2018-03-29T02:15:55.490Z,3.79
2018-03-29T02:16:55.470Z,3.86
2018-03-29T02:17:55.443Z,3.90
2018-03-29T02:18:55.424Z,3.91
2018-03-29T02:19:55.403Z,3.79
2018-03-29T02:20:55.378Z,3.90
2018-03-29T02:21:55.368Z,3.90
2018-03-29T02:22:55.339Z,3.90
2018-03-29T02:23:55.320Z,3.88
2018-03-29T02:24:55.295Z,3.83
2018-03-29T02:25:55.272Z,3.98
2018-03-29T02:26:55.254Z,3.80
2018-03-29T02:27:55.280Z,3.80
2018-03-29T02:28:55.219Z,3.91
2018-03-29T02:29:55.188Z,3.87
2018-03-29T02:30:55.169Z,3.96
2018-03-29T02:31:55.156Z,3.90
2018-03-29T02:32:55.124Z,3.88
2018-03-29T02:33:55.107Z,3.90
2018-03-29T02:34:55.080Z,4.06
2018-03-29T02:35:55.057Z,4.02
2018-03-29T02:36:55.034Z,3.96
2018-03-29T02:37:55.018Z,4.00
2018-03-29T02:38:54.994Z,4.04
2018-03-29T02:39:54.972Z,4.06
2018-03-29T02:40:54.955Z,4.06
2018-03-29T02:41:54.945Z,4.09
2018-03-29T02:42:54.908Z,4.06
2018-03-29T02:43:54.890Z,4.09
2018-03-29T02:44:54.868Z,4.09
2018-03-29T02:45:54.844Z,4.12
2018-03-29T02:46:54.825Z,4.14
2018-03-29T02:47:54.853Z,4.14
2018-03-29T02:48:54.782Z,4.20
2018-03-29T02:49:54.758Z,4.14
2018-03-29T02:50:54.741Z,4.33
2018-03-29T02:51:54.817Z,4.27
2018-03-29T02:52:54.696Z,4.29
2018-03-29T02:53:54.725Z,4.33
2018-03-29T02:54:54.658Z,4.34
2018-03-29T02:55:54.735Z,4.32
2018-03-29T02:56:54.611Z,4.40
2018-03-29T02:57:54.590Z,4.44
2018-03-29T02:58:54.569Z,4.41
2018-03-29T02:59:54.646Z,4.50
2018-03-29T03:00:54.523Z,4.42
2018-03-29T03:01:54.682Z,4.45
2018-03-29T03:02:54.483Z,4.50
2018-03-29T03:03:54.462Z,4.51
2018-03-29T03:04:54.442Z,4.45
2018-03-29T03:05:54.417Z,4.50
2018-03-29T03:06:54.401Z,4.52
2018-03-29T03:07:54.375Z,4.55
2018-03-29T03:08:54.354Z,4.45
2018-03-29T03:09:54.334Z,4.52
2018-03-29T03:10:54.319Z,4.51
2018-03-29T03:11:54.290Z,4.52
2018-03-29T03:12:54.273Z,4.52
2018-03-29T03:13:54.248Z,4.47
2018-03-29T03:14:54.227Z,4.52
2018-03-29T03:15:54.209Z,4.59
2018-03-29T03:16:54.183Z,4.48
2018-03-29T03:17:54.166Z,4.62
2018-03-29T03:18:54.139Z,4.59
2018-03-29T03:19:54.128Z,4.63
2018-03-29T03:20:54.103Z,4.65
2018-03-29T03:21:54.075Z,4.60
2018-03-29T03:22:54.060Z,4.62
2018-03-29T03:23:54.036Z,4.60
2018-03-29T03:24:54.016Z,4.63
2018-03-29T03:25:53.993Z,4.60
2018-03-29T03:26:53.974Z,4.60
2018-03-29T03:27:53.981Z,4.63
2018-03-29T03:28:53.934Z,4.65
2018-03-29T03:29:53.910Z,4.72
2018-03-29T03:30:53.889Z,4.70
2018-03-29T03:31:53.865Z,4.66
2018-03-29T03:32:53.849Z,4.67
2018-03-29T03:33:53.824Z,4.67
2018-03-29T03:34:53.803Z,4.75
2018-03-29T03:35:53.787Z,4.73
2018-03-29T03:36:53.762Z,4.78
2018-03-29T03:37:53.742Z,4.75
2018-03-29T03:38:53.718Z,4.77
2018-03-29T03:39:53.702Z,4.85
2018-03-29T03:40:53.684Z,4.86
2018-03-29T03:41:53.665Z,4.92
2018-03-29T03:42:53.635Z,4.97
2018-03-29T03:43:53.616Z,4.88
2018-03-29T03:44:53.592Z,5.03
2018-03-29T03:45:53.574Z,5.09
2018-03-29T03:46:53.554Z,5.09
2018-03-29T03:47:53.530Z,5.07
2018-03-29T03:48:53.507Z,5.03
2018-03-29T03:49:53.490Z,5.12
2018-03-29T03:50:53.466Z,5.22
2018-03-29T03:51:53.446Z,5.17
2018-03-29T03:52:53.425Z,5.22
2018-03-29T03:53:53.403Z,5.25
2018-03-29T03:54:53.439Z,5.20
2018-03-29T03:55:53.362Z,5.25
2018-03-29T03:56:53.341Z,5.17
2018-03-29T03:57:53.323Z,5.33
2018-03-29T03:58:53.296Z,5.22
2018-03-29T03:59:53.276Z,5.28
2018-03-29T04:00:53.253Z,5.35
2018-03-29T04:01:53.238Z,5.36
2018-03-29T04:02:53.211Z,5.35
2018-03-29T04:03:53.193Z,5.45
2018-03-29T04:04:53.173Z,5.36
2018-03-29T04:05:53.150Z,5.38
2018-03-29T04:06:53.128Z,5.43
2018-03-29T04:07:53.106Z,5.39
2018-03-29T04:08:53.084Z,5.51
2018-03-29T04:09:53.063Z,5.56
2018-03-29T04:10:53.044Z,5.58
2018-03-29T04:11:53.024Z,5.56
2018-03-29T04:12:53.011Z,5.60
2018-03-29T04:13:53.000Z,5.60
2018-03-29T04:14:52.958Z,5.57
2018-03-29T04:15:52.942Z,5.63
2018-03-29T04:16:52.917Z,5.64
2018-03-29T04:17:52.893Z,5.63
2018-03-29T04:18:52.879Z,5.61
2018-03-29T04:19:52.858Z,5.65
2018-03-29T04:20:52.834Z,5.68
2018-03-29T04:21:52.808Z,5.67
2018-03-29T04:22:52.792Z,5.64
2018-03-29T04:23:52.767Z,5.63
2018-03-29T04:24:52.751Z,5.63
2018-03-29T04:25:52.725Z,5.60
2018-03-29T04:26:52.706Z,5.68
2018-03-29T04:27:52.685Z,5.61
2018-03-29T04:28:52.662Z,5.64
2018-03-29T04:29:52.643Z,5.63
2018-03-29T04:30:52.624Z,5.64
2018-03-29T04:31:52.601Z,5.63
2018-03-29T04:32:52.578Z,5.71
2018-03-29T04:33:52.562Z,5.64
2018-03-29T04:34:52.546Z,5.65
2018-03-29T04:35:52.515Z,5.63
2018-03-29T04:36:52.493Z,5.57
2018-03-29T04:37:52.473Z,5.63
2018-03-29T04:38:52.450Z,5.58
2018-03-29T04:39:52.433Z,5.60
2018-03-29T04:40:52.416Z,5.54
2018-03-29T04:41:52.394Z,5.56
2018-03-29T04:42:52.373Z,5.58
2018-03-29T04:43:52.353Z,5.56
2018-03-29T04:44:52.326Z,5.49
2018-03-29T04:45:52.310Z,5.53
2018-03-29T04:46:52.286Z,5.53
2018-03-29T04:47:52.263Z,5.54
2018-03-29T04:48:52.244Z,5.45
2018-03-29T04:49:52.222Z,5.49
2018-03-29T04:50:52.199Z,5.36
2018-03-29T04:51:52.188Z,5.42
2018-03-29T04:52:52.164Z,5.42
2018-03-29T04:53:52.144Z,5.46
2018-03-29T04:54:52.116Z,5.38
2018-03-29T04:55:52.095Z,5.39
2018-03-29T04:56:52.075Z,5.39
2018-03-29T04:57:52.051Z,5.36
2018-03-29T04:58:52.033Z,5.35
2018-03-29T04:59:52.012Z,5.43
2018-03-29T05:00:51.990Z,5.40
2018-03-29T05:01:51.969Z,5.42
2018-03-29T05:02:51.953Z,5.33
2018-03-29T05:03:51.927Z,5.40
2018-03-29T05:04:51.903Z,5.28
2018-03-29T05:05:51.882Z,5.30
2018-03-29T05:06:51.861Z,5.40
2018-03-29T05:07:51.845Z,5.31
2018-03-29T05:08:51.818Z,5.35
2018-03-29T05:09:51.806Z,5.30
2018-03-29T05:10:51.779Z,5.40
2018-03-29T05:11:51.756Z,5.36
2018-03-29T05:12:51.737Z,5.31
2018-03-29T05:13:51.712Z,5.30
2018-03-29T05:14:51.691Z,5.39
2018-03-29T05:15:51.673Z,5.38
2018-03-29T05:16:51.652Z,5.40
2018-03-29T05:17:51.633Z,5.42
2018-03-29T05:18:51.612Z,5.42
2018-03-29T05:19:51.594Z,5.36
2018-03-29T05:20:51.565Z,5.38
2018-03-29T05:21:51.544Z,5.36
2018-03-29T05:22:51.524Z,5.31
2018-03-29T05:23:51.502Z,5.31
2018-03-29T05:24:51.482Z,5.28
2018-03-29T05:25:51.462Z,5.33
2018-03-29T05:26:51.447Z,5.28
2018-03-29T05:27:51.433Z,5.36
2018-03-29T05:28:51.447Z,5.36
2018-03-29T05:29:51.379Z,5.31
2018-03-29T05:30:51.456Z,5.31
2018-03-29T05:31:51.333Z,5.38
2018-03-29T05:32:51.310Z,5.31
2018-03-29T05:33:51.292Z,5.28
2018-03-29T05:34:51.370Z,5.22
2018-03-29T05:35:51.253Z,5.31
2018-03-29T05:36:51.228Z,5.31
2018-03-29T05:37:51.224Z,5.33
2018-03-29T05:38:51.233Z,5.24
2018-03-29T05:39:51.169Z,5.21
2018-03-29T05:40:51.205Z,5.31
2018-03-29T05:41:51.126Z,5.28
2018-03-29T05:42:51.104Z,5.30
2018-03-29T05:43:51.080Z,5.27
2018-03-29T05:44:51.143Z,5.25
2018-03-29T05:45:51.051Z,5.27
2018-03-29T05:46:51.074Z,5.25
2018-03-29T05:47:51.002Z,5.22
2018-03-29T05:48:51.067Z,5.30
2018-03-29T05:49:50.957Z,5.18
2018-03-29T05:50:50.939Z,5.25
2018-03-29T05:51:50.914Z,5.18
2018-03-29T05:52:50.893Z,5.18
2018-03-29T05:53:50.873Z,5.25
2018-03-29T05:54:50.879Z,5.27
2018-03-29T05:55:50.826Z,5.28
2018-03-29T05:56:50.860Z,5.22
2018-03-29T05:57:50.785Z,5.30
2018-03-29T05:58:50.764Z,5.27
2018-03-29T05:59:50.739Z,5.15
2018-03-29T06:00:50.722Z,5.31
2018-03-29T06:01:50.701Z,5.21
2018-03-29T06:02:50.833Z,5.18
2018-03-29T06:03:50.655Z,5.24
2018-03-29T06:04:50.638Z,5.22
2018-03-29T06:05:50.614Z,5.22
2018-03-29T06:06:50.594Z,5.20
2018-03-29T06:07:50.575Z,5.20
2018-03-29T06:08:50.657Z,5.17
2018-03-29T06:09:50.533Z,5.24
2018-03-29T06:10:50.512Z,5.18
2018-03-29T06:11:50.488Z,5.20
2018-03-29T06:12:50.568Z,5.22
2018-03-29T06:13:50.445Z,5.20
2018-03-29T06:14:50.423Z,5.27
2018-03-29T06:15:50.402Z,5.27
2018-03-29T06:16:50.377Z,5.20
2018-03-29T06:17:50.439Z,5.17
2018-03-29T06:18:50.337Z,5.28
2018-03-29T06:19:50.319Z,5.24
2018-03-29T06:20:50.300Z,5.25
2018-03-29T06:21:50.274Z,5.18
2018-03-29T06:22:50.252Z,5.15
2018-03-29T06:23:50.231Z,5.17
2018-03-29T06:24:50.210Z,5.10
2018-03-29T06:25:50.196Z,5.24
2018-03-29T06:26:50.170Z,5.20
2018-03-29T06:27:50.146Z,5.25
2018-03-29T06:28:50.126Z,5.24
2018-03-29T06:29:50.113Z,5.18
2018-03-29T06:30:50.091Z,5.30
2018-03-29T06:31:50.095Z,5.30
2018-03-29T06:32:50.050Z,5.25
2018-03-29T06:33:50.030Z,5.18
2018-03-29T06:34:50.002Z,5.27
2018-03-29T06:35:49.996Z,5.27
2018-03-29T06:36:49.958Z,5.35
2018-03-29T06:37:49.939Z,5.24
2018-03-29T06:38:49.914Z,5.17
2018-03-29T06:39:49.901Z,5.25
2018-03-29T06:40:49.874Z,5.31
2018-03-29T06:41:49.853Z,5.24
2018-03-29T06:42:49.834Z,5.27
2018-03-29T06:43:49.812Z,5.31
2018-03-29T06:44:49.792Z,5.24
2018-03-29T06:45:49.767Z,5.24
2018-03-29T06:46:49.751Z,5.24
2018-03-29T06:47:49.727Z,5.33
2018-03-29T06:48:49.704Z,5.31
2018-03-29T06:49:49.684Z,5.30
2018-03-29T06:50:49.665Z,5.31
2018-03-29T06:51:49.644Z,5.31
2018-03-29T06:52:49.622Z,5.35
2018-03-29T06:53:49.611Z,5.39
2018-03-29T06:54:49.664Z,5.36
2018-03-29T06:55:49.560Z,5.33
2018-03-29T06:56:49.539Z,5.33
2018-03-29T06:57:49.514Z,5.28
2018-03-29T06:58:49.493Z,5.39
2018-03-29T06:59:49.477Z,5.40
2018-03-29T07:00:49.457Z,5.30
2018-03-29T07:01:49.433Z,5.33
2018-03-29T07:02:49.410Z,5.30
2018-03-29T07:03:49.396Z,5.45
2018-03-29T07:04:49.371Z,5.43
2018-03-29T07:05:49.347Z,5.39
2018-03-29T07:06:49.332Z,5.42
2018-03-29T07:07:49.303Z,5.40
2018-03-29T07:08:49.282Z,5.36
2018-03-29T07:09:49.263Z,5.36
2018-03-29T07:10:49.244Z,5.43
2018-03-29T07:11:49.222Z,5.45
2018-03-29T07:12:49.200Z,5.38
2018-03-29T07:13:49.185Z,5.46
2018-03-29T07:14:49.158Z,5.39
2018-03-29T07:15:49.142Z,5.38
2018-03-29T07:16:49.114Z,5.31
2018-03-29T07:17:49.098Z,5.46
2018-03-29T07:18:49.075Z,5.46
2018-03-29T07:19:49.055Z,5.46
2018-03-29T07:20:49.037Z,5.46
2018-03-29T07:21:49.010Z,5.46
2018-03-29T07:22:48.991Z,5.46
2018-03-29T07:23:48.974Z,5.51
2018-03-29T07:24:48.952Z,5.49
2018-03-29T07:25:48.930Z,5.45
2018-03-29T07:26:48.914Z,5.53
2018-03-29T07:27:48.894Z,5.48
2018-03-29T07:28:48.864Z,5.54
2018-03-29T07:29:48.850Z,5.57
2018-03-29T07:30:48.826Z,5.54
2018-03-29T07:31:48.855Z,5.56
2018-03-29T07:32:48.784Z,5.57
2018-03-29T07:33:48.762Z,5.60
2018-03-29T07:34:48.742Z,5.61
2018-03-29T07:35:48.720Z,5.63
2018-03-29T07:36:48.699Z,5.56
2018-03-29T07:37:48.678Z,5.67
2018-03-29T07:38:48.658Z,5.68
2018-03-29T07:39:48.636Z,5.63
2018-03-29T07:40:48.615Z,5.61
2018-03-29T07:41:48.594Z,5.72
2018-03-29T07:42:48.573Z,5.65
2018-03-29T07:43:48.553Z,5.65
2018-03-29T07:44:48.532Z,5.71
2018-03-29T07:45:48.508Z,5.63
2018-03-29T07:46:48.494Z,5.68
2018-03-29T07:47:48.521Z,5.65
2018-03-29T07:48:48.453Z,5.65
2018-03-29T07:49:48.428Z,5.74
2018-03-29T07:50:48.462Z,5.81
2018-03-29T07:51:48.387Z,5.83
2018-03-29T07:52:48.364Z,5.68
2018-03-29T07:53:48.347Z,5.81
2018-03-29T07:54:48.322Z,5.78
2018-03-29T07:55:48.302Z,5.82
2018-03-29T07:56:48.282Z,5.81
2018-03-29T07:57:48.270Z,5.78
2018-03-29T07:58:48.239Z,5.78
2018-03-29T07:59:48.225Z,5.79
2018-03-29T08:00:48.243Z,5.78
2018-03-29T08:01:48.182Z,5.79
2018-03-29T08:02:48.159Z,5.94
2018-03-29T08:03:48.143Z,5.82
2018-03-29T08:04:48.120Z,5.82
2018-03-29T08:05:48.096Z,5.83
2018-03-29T08:06:48.076Z,5.86
2018-03-29T08:07:48.096Z,5.86
2018-03-29T08:08:48.043Z,5.89
2018-03-29T08:09:48.014Z,5.91
2018-03-29T08:10:47.992Z,5.90
2018-03-29T08:11:47.978Z,5.85
2018-03-29T08:12:48.052Z,5.91
2018-03-29T08:13:47.948Z,6.03
2018-03-29T08:14:47.916Z,6.06
2018-03-29T08:15:47.890Z,6.08
2018-03-29T08:16:47.866Z,6.06
2018-03-29T08:17:47.851Z,6.08
2018-03-29T08:18:47.826Z,6.08
2018-03-29T08:19:47.806Z,6.11
2018-03-29T08:20:47.784Z,6.08
2018-03-29T08:21:47.768Z,6.03
2018-03-29T08:22:47.747Z,6.15
2018-03-29T08:23:47.723Z,6.15
2018-03-29T08:24:47.714Z,6.11
2018-03-29T08:25:47.683Z,6.08
2018-03-29T08:26:47.673Z,6.06
2018-03-29T08:27:47.644Z,6.14
2018-03-29T08:28:47.632Z,6.18
2018-03-29T08:29:47.605Z,6.12
2018-03-29T08:30:47.584Z,6.18
2018-03-29T08:31:47.569Z,6.17
2018-03-29T08:32:47.544Z,6.17
2018-03-29T08:33:47.518Z,6.22
2018-03-29T08:34:47.503Z,6.18
2018-03-29T08:35:47.481Z,6.22
2018-03-29T08:36:47.467Z,6.25
2018-03-29T08:37:47.442Z,6.27
2018-03-29T08:38:47.430Z,6.31
2018-03-29T08:39:47.397Z,6.28
2018-03-29T08:40:47.377Z,6.19
2018-03-29T08:41:47.360Z,6.27
2018-03-29T08:42:47.388Z,6.31
2018-03-29T08:43:47.423Z,6.28
2018-03-29T08:44:47.298Z,6.30
2018-03-29T08:45:47.281Z,6.38
2018-03-29T08:46:47.253Z,6.28
2018-03-29T08:47:47.238Z,6.31
2018-03-29T08:48:47.222Z,6.37
2018-03-29T08:49:47.286Z,6.36
2018-03-29T08:50:47.177Z,6.36
2018-03-29T08:51:47.304Z,6.34
2018-03-29T08:52:47.134Z,6.41
2018-03-29T08:53:47.265Z,6.55
2018-03-29T08:54:47.095Z,6.61
2018-03-29T08:55:47.199Z,6.77
2018-03-29T08:56:47.052Z,6.71
2018-03-29T08:57:47.109Z,6.73
2018-03-29T08:58:47.012Z,6.73
2018-03-29T08:59:47.063Z,6.81
2018-03-29T09:00:46.970Z,6.73
2018-03-29T09:01:46.952Z,6.89
2018-03-29T09:02:46.934Z,6.85
2018-03-29T09:03:46.928Z,6.76
2018-03-29T09:04:46.892Z,6.84
2018-03-29T09:05:46.872Z,6.79
2018-03-29T09:06:46.862Z,6.85
2018-03-29T09:07:46.833Z,6.79
2018-03-29T09:08:46.813Z,6.67
2018-03-29T09:09:46.793Z,6.76
2018-03-29T09:10:46.771Z,6.74
2018-03-29T09:11:46.758Z,6.81
2018-03-29T09:12:46.733Z,6.85
2018-03-29T09:13:46.719Z,6.89
2018-03-29T09:14:46.694Z,6.91
2018-03-29T09:15:46.687Z,6.94
2018-03-29T09:16:46.654Z,6.95
2018-03-29T09:17:46.639Z,6.99
2018-03-29T09:18:46.666Z,6.94
2018-03-29T09:19:46.685Z,6.97
2018-03-29T09:20:46.577Z,6.97
2018-03-29T09:21:46.741Z,7.02
2018-03-29T09:22:46.537Z,7.27
2018-03-29T09:23:46.523Z,7.32
2018-03-29T09:24:46.497Z,7.53
2018-03-29T09:25:46.482Z,7.63
2018-03-29T09:26:46.457Z,7.79
2018-03-29T09:27:46.442Z,7.87
2018-03-29T09:28:46.418Z,8.10
2018-03-29T09:29:46.453Z,8.34
2018-03-29T09:30:46.383Z,8.55
2018-03-29T09:31:46.366Z,8.87
2018-03-29T09:32:46.349Z,8.77
2018-03-29T09:33:46.324Z,8.77
2018-03-29T09:34:46.314Z,8.92
2018-03-29T09:35:46.292Z,8.80
2018-03-29T09:36:46.273Z,8.53
2018-03-29T09:37:46.255Z,8.48
2018-03-29T09:38:46.243Z,8.77
2018-03-29T09:39:46.218Z,8.53
2018-03-29T09:40:46.203Z,8.38
2018-03-29T09:41:46.185Z,8.80
2018-03-29T09:42:46.168Z,9.31
2018-03-29T09:43:46.166Z,9.50
2018-03-29T09:44:46.131Z,9.51
2018-03-29T09:45:46.117Z,9.84
2018-03-29T09:46:46.100Z,10.53
2018-03-29T09:47:46.097Z,11.40
2018-03-29T09:48:46.069Z,11.79
2018-03-29T09:49:46.055Z,12.05
2018-03-29T09:50:46.046Z,12.31
2018-03-29T09:51:46.028Z,12.83
2018-03-29T09:52:46.015Z,13.11
2018-03-29T09:53:46.003Z,13.38
2018-03-29T09:54:45.990Z,13.41
2018-03-29T09:55:45.981Z,13.70
2018-03-29T09:56:46.068Z,13.60
2018-03-29T09:57:45.951Z,13.32
2018-03-29T09:58:45.943Z,13.26
2018-03-29T09:59:45.948Z,13.07
2018-03-29T10:00:45.926Z,13.59
2018-03-29T10:01:45.916Z,13.41
2018-03-29T10:02:45.916Z,13.19
2018-03-29T10:03:45.898Z,12.74
2018-03-29T10:04:45.894Z,12.17
2018-03-29T10:05:45.890Z,11.70
2018-03-29T10:06:45.883Z,11.46
2018-03-29T10:07:45.872Z,11.25
2018-03-29T10:08:45.870Z,11.04
2018-03-29T10:09:45.858Z,11.02
2018-03-29T10:10:45.859Z,10.88
2018-03-29T10:11:45.837Z,10.78
2018-03-29T10:12:45.831Z,10.88
2018-03-29T10:13:45.819Z,10.82
2018-03-29T10:14:45.820Z,10.89
2018-03-29T10:15:45.804Z,11.00
2018-03-29T10:16:45.793Z,11.28
2018-03-29T10:17:45.784Z,11.21
2018-03-29T10:18:45.772Z,10.91
2018-03-29T10:19:45.768Z,11.00
2018-03-29T10:20:45.764Z,10.92
2018-03-29T10:21:45.745Z,10.74
2018-03-29T10:22:45.734Z,10.92
2018-03-29T10:23:45.724Z,10.86
2018-03-29T10:24:45.725Z,10.91
2018-03-29T10:25:45.707Z,10.91
2018-03-29T10:26:45.694Z,10.82
2018-03-29T10:27:45.684Z,10.59
2018-03-29T10:28:45.671Z,10.56
2018-03-29T10:29:45.663Z,10.29
2018-03-29T10:30:45.650Z,10.25
2018-03-29T10:31:45.638Z,10.14
2018-03-29T10:32:45.630Z,10.04
2018-03-29T10:33:45.615Z,9.84
2018-03-29T10:34:45.604Z,9.75
2018-03-29T10:35:45.604Z,9.58
2018-03-29T10:36:45.579Z,9.53
2018-03-29T10:37:45.567Z,9.64
2018-03-29T10:38:45.558Z,9.57
2018-03-29T10:39:45.548Z,9.58
2018-03-29T10:40:45.528Z,9.51
2018-03-29T10:41:45.513Z,9.61
2018-03-29T10:42:45.513Z,9.68
2018-03-29T10:43:45.487Z,9.75
2018-03-29T10:44:45.478Z,9.69
2018-03-29T10:45:45.464Z,9.66
2018-03-29T10:46:45.457Z,9.64
2018-03-29T10:47:45.432Z,9.36
2018-03-29T10:48:45.418Z,9.32
2018-03-29T10:49:45.411Z,9.23
2018-03-29T10:50:45.394Z,9.39
2018-03-29T10:51:45.379Z,9.38
2018-03-29T10:52:45.362Z,9.38
2018-03-29T10:53:45.353Z,9.38
2018-03-29T10:54:45.334Z,9.43
2018-03-29T10:55:45.323Z,9.38
2018-03-29T10:56:45.298Z,9.36
2018-03-29T10:57:45.284Z,9.35
2018-03-29T10:58:45.277Z,9.36
2018-03-29T10:59:45.255Z,9.24
2018-03-29T11:00:45.381Z,9.23
2018-03-29T11:01:45.239Z,9.15
2018-03-29T11:02:45.221Z,8.91
2018-03-29T11:03:45.200Z,8.95
2018-03-29T11:04:45.180Z,8.74
2018-03-29T11:05:45.164Z,8.73
2018-03-29T11:06:45.149Z,8.66
2018-03-29T11:07:45.275Z,8.59
2018-03-29T11:08:45.224Z,8.58
2018-03-29T11:09:45.100Z,8.56
2018-03-29T11:10:45.087Z,8.50
2018-03-29T11:11:45.073Z,8.43
2018-03-29T11:12:45.050Z,8.41
2018-03-29T11:13:45.030Z,8.50
2018-03-29T11:14:45.110Z,8.44
2018-03-29T11:15:45.005Z,8.43
2018-03-29T11:16:44.983Z,8.34
2018-03-29T11:17:44.963Z,8.38
2018-03-29T11:18:45.018Z,8.25
2018-03-29T11:19:44.927Z,8.26
2018-03-29T11:20:44.917Z,8.33
2018-03-29T11:21:44.890Z,8.40
2018-03-29T11:22:44.887Z,8.25
2018-03-29T11:23:44.860Z,8.25
2018-03-29T11:24:44.843Z,8.22
2018-03-29T11:25:44.828Z,8.29
2018-03-29T11:26:44.804Z,8.23
2018-03-29T11:27:44.785Z,8.25
2018-03-29T11:28:44.922Z,8.25
2018-03-29T11:29:44.748Z,8.25
2018-03-29T11:30:44.736Z,8.30
2018-03-29T11:31:44.713Z,8.16
2018-03-29T11:32:44.696Z,8.22
2018-03-29T11:33:44.685Z,8.19
2018-03-29T11:34:44.659Z,8.10
2018-03-29T11:35:44.645Z,8.20
2018-03-29T11:36:44.641Z,8.19
2018-03-29T11:37:44.601Z,8.23
2018-03-29T11:38:44.598Z,8.23
2018-03-29T11:39:44.567Z,8.34
2018-03-29T11:40:44.549Z,8.26
2018-03-29T11:41:44.536Z,8.30
2018-03-29T11:42:44.601Z,8.30
2018-03-29T11:43:44.493Z,8.29
2018-03-29T11:44:44.474Z,8.25
2018-03-29T11:45:44.454Z,8.30
2018-03-29T11:46:44.439Z,8.34
2018-03-29T11:47:44.424Z,8.41
2018-03-29T11:48:44.397Z,8.26
2018-03-29T11:49:44.392Z,8.25
2018-03-29T11:50:44.366Z,8.38
2018-03-29T11:51:44.351Z,8.28
2018-03-29T11:52:44.326Z,8.30
2018-03-29T11:53:44.310Z,8.25
2018-03-29T11:54:44.288Z,8.38
2018-03-29T11:55:44.274Z,8.45
2018-03-29T11:56:44.254Z,8.48
2018-03-29T11:57:44.234Z,8.68
2018-03-29T11:58:44.215Z,8.77
2018-03-29T11:59:44.201Z,8.70
2018-03-29T12:00:44.177Z,8.87
2018-03-29T12:01:44.164Z,8.81
2018-03-29T12:02:44.147Z,8.89
2018-03-29T12:03:44.124Z,8.91
2018-03-29T12:04:44.107Z,8.89
2018-03-29T12:05:44.096Z,8.79
2018-03-29T12:06:44.076Z,8.89
2018-03-29T12:07:44.056Z,8.83
2018-03-29T12:08:44.033Z,8.86
2018-03-29T12:09:44.027Z,8.84
2018-03-29T12:10:44.000Z,9.01
2018-03-29T12:11:43.980Z,8.99
2018-03-29T12:12:43.966Z,9.15
2018-03-29T12:13:43.991Z,9.14
2018-03-29T12:14:43.934Z,9.17
2018-03-29T12:15:43.913Z,9.23
2018-03-29T12:16:43.894Z,9.26
2018-03-29T12:17:43.878Z,9.31
2018-03-29T12:18:43.862Z,9.21
2018-03-29T12:19:43.843Z,9.13
2018-03-29T12:20:43.831Z,9.14
2018-03-29T12:21:43.805Z,9.14
2018-03-29T12:22:43.790Z,9.11
2018-03-29T12:23:43.775Z,9.20
2018-03-29T12:24:43.755Z,9.10
2018-03-29T12:25:43.736Z,9.01
2018-03-29T12:26:43.719Z,8.80
2018-03-29T12:27:43.699Z,8.76
2018-03-29T12:28:43.682Z,8.74
2018-03-29T12:29:43.669Z,8.65
2018-03-29T12:30:43.651Z,8.68
2018-03-29T12:31:43.632Z,8.53
2018-03-29T12:32:43.608Z,8.56
2018-03-29T12:33:43.593Z,8.55
2018-03-29T12:34:43.575Z,8.55
2018-03-29T12:35:43.561Z,8.56
2018-03-29T12:36:43.643Z,8.58
2018-03-29T12:37:43.522Z,8.47
2018-03-29T12:38:43.513Z,8.48
2018-03-29T12:39:43.487Z,8.40
2018-03-29T12:40:43.515Z,8.40
2018-03-29T12:41:43.449Z,8.43
2018-03-29T12:42:43.434Z,8.40
2018-03-29T12:43:43.414Z,8.37
2018-03-29T12:44:43.425Z,8.37
2018-03-29T12:45:43.384Z,8.38
2018-03-29T12:46:43.407Z,8.38
2018-03-29T12:47:43.340Z,8.37
2018-03-29T12:48:43.361Z,8.37
2018-03-29T12:49:43.304Z,8.40
2018-03-29T12:50:43.292Z,8.37
2018-03-29T12:51:43.270Z,8.40
2018-03-29T12:52:43.248Z,8.34
2018-03-29T12:53:43.229Z,8.33
2018-03-29T12:54:43.261Z,8.33
2018-03-29T12:55:43.206Z,8.41
2018-03-29T12:56:43.174Z,8.38
2018-03-29T12:57:43.156Z,8.40
2018-03-29T12:58:43.141Z,8.38
2018-03-29T12:59:43.118Z,8.22
2018-03-29T13:00:43.100Z,8.26
2018-03-29T13:01:43.080Z,8.30
2018-03-29T13:02:43.068Z,8.25
2018-03-29T13:03:43.044Z,8.23
2018-03-29T13:04:43.030Z,8.41
2018-03-29T13:05:43.006Z,8.38
2018-03-29T13:06:42.997Z,8.45
2018-03-29T13:07:42.968Z,8.66
2018-03-29T13:08:42.976Z,8.87
2018-03-29T13:09:42.931Z,8.84
2018-03-29T13:10:42.923Z,9.05
2018-03-29T13:11:42.910Z,9.23
2018-03-29T13:12:42.886Z,9.35
2018-03-29T13:13:42.881Z,9.35
2018-03-29T13:14:42.925Z,9.38
2018-03-29T13:15:42.823Z,9.35
2018-03-29T13:16:42.809Z,9.39